Time;durP1;ratioP1;P1;durP2;ratioP2;P2;SDS_P1;SDS_P2;PMS_P1;PMS_P2;Temp;Humidity;BMP_temperature;BMP_pressure;BME280_temperature;BME280_humidity;BME280_pressure;Samples;Min_cycle;Max_cycle;Signal;HPM_P1;HPM_P2
2023/07/30 00:01:12;;;;;;;8.95;3.50;;;17.20;99.90;;;;;;5041348;28;20033;-53
2023/07/30 00:03:38;;;;;;;5.20;3.28;;;17.20;99.90;;;;;;5039324;28;20143;-52
2023/07/30 00:06:04;;;;;;;11.18;3.42;;;17.20;99.90;;;;;;5042878;28;20508;-52
2023/07/30 00:08:30;;;;;;;10.77;3.22;;;17.10;99.90;;;;;;5042583;28;20808;-50
2023/07/30 00:10:58;;;;;;;7.95;3.38;;;17.00;99.90;;;;;;5042192;28;20091;-52
2023/07/30 00:13:25;;;;;;;6.85;3.20;;;16.90;99.90;;;;;;5040307;28;20598;-53
2023/07/30 00:15:50;;;;;;;8.20;3.28;;;16.90;99.90;;;;;;5042003;28;20496;-51
2023/07/30 00:18:16;;;;;;;10.50;3.10;;;16.80;99.90;;;;;;5033851;28;20041;-53
2023/07/30 00:20:42;;;;;;;4.85;3.50;;;16.80;99.90;;;;;;5041198;28;20099;-53
2023/07/30 00:23:08;;;;;;;0.00;0.00;;;16.60;99.90;;;;;;5041580;28;20366;-52
2023/07/30 00:25:33;;;;;;;9.80;3.38;;;16.60;99.90;;;;;;5041861;28;21035;-55
2023/07/30 00:27:59;;;;;;;9.07;3.42;;;16.60;99.90;;;;;;5034490;28;20101;-53
2023/07/30 00:30:25;;;;;;;8.55;3.28;;;16.60;99.90;;;;;;5042241;28;20049;-53
2023/07/30 00:32:50;;;;;;;7.10;3.40;;;16.70;99.90;;;;;;5043084;28;20041;-52
2023/07/30 00:35:16;;;;;;;6.53;3.33;;;16.60;99.90;;;;;;5042993;28;20464;-49
2023/07/30 00:37:42;;;;;;;12.05;3.45;;;16.60;99.90;;;;;;5042790;28;20056;-52
2023/07/30 00:40:08;;;;;;;8.90;3.65;;;16.50;99.90;;;;;;5041248;28;20685;-53
2023/07/30 00:42:33;;;;;;;7.95;3.63;;;16.60;99.90;;;;;;5038670;28;20095;-53
2023/07/30 00:44:59;;;;;;;11.77;3.83;;;16.50;99.90;;;;;;5042670;28;20147;-52
2023/07/30 00:47:25;;;;;;;8.30;3.60;;;16.50;99.90;;;;;;5040870;28;22475;-52
2023/07/30 00:49:51;;;;;;;8.63;3.67;;;16.30;99.90;;;;;;5041859;28;20037;-52
2023/07/30 00:52:19;;;;;;;10.32;3.97;;;16.20;99.90;;;;;;5041653;28;20080;-52
2023/07/30 00:54:46;;;;;;;6.43;3.60;;;16.20;99.90;;;;;;5042477;28;20815;-50
2023/07/30 00:57:12;;;;;;;8.07;3.25;;;16.30;99.90;;;;;;5041059;28;20134;-52
2023/07/30 00:59:38;;;;;;;0.00;0.00;;;16.20;99.90;;;;;;5040908;28;20473;-51
2023/07/30 01:02:04;;;;;;;0.00;0.00;;;16.20;99.90;;;;;;5037365;28;20041;-51
2023/07/30 01:04:30;;;;;;;0.00;0.00;;;16.20;99.90;;;;;;5039785;28;20437;-54
2023/07/30 01:06:56;;;;;;;0.00;0.00;;;16.20;99.90;;;;;;5042024;28;20135;-53
2023/07/30 01:09:22;;;;;;;0.00;0.00;;;16.20;99.90;;;;;;5040116;28;20044;-51
2023/07/30 01:11:48;;;;;;;0.00;0.00;;;16.20;99.90;;;;;;5036323;28;20041;-53
2023/07/30 01:14:14;;;;;;;0.00;0.00;;;16.10;99.90;;;;;;5037015;28;20045;-52
2023/07/30 01:16:41;;;;;;;0.00;0.00;;;16.00;99.90;;;;;;5035519;28;20037;-52
2023/07/30 01:19:07;;;;;;;0.00;0.00;;;16.00;99.90;;;;;;5037604;28;20488;-53
2023/07/30 01:21:37;;;;;;;0.00;0.00;;;15.90;99.90;;;;;;5037265;28;20082;-52
2023/07/30 01:24:03;;;;;;;0.00;0.00;;;16.00;99.90;;;;;;5037554;28;20623;-51
2023/07/30 01:26:38;;;;;;;0.20;0.10;;;15.90;99.90;;;;;;5037414;28;20066;-52
2023/07/30 01:29:14;;;;;;;0.00;0.00;;;15.80;99.90;;;;;;5038011;28;20029;-52
2023/07/30 01:31:41;;;;;;;0.00;0.00;;;15.80;99.90;;;;;;5037465;28;21637;-53
2023/07/30 01:34:09;;;;;;;0.00;0.00;;;15.70;99.90;;;;;;5038967;28;20060;-51
2023/07/30 01:36:36;;;;;;;0.00;0.00;;;15.70;99.90;;;;;;5036912;28;20025;-52
2023/07/30 01:39:02;;;;;;;0.00;0.00;;;15.80;99.90;;;;;;5041369;28;20488;-52
2023/07/30 01:41:28;;;;;;;0.00;0.00;;;15.70;99.90;;;;;;5039389;28;20495;-51
2023/07/30 01:43:54;;;;;;;0.00;0.00;;;15.70;99.90;;;;;;5035696;28;20025;-52
2023/07/30 01:46:19;;;;;;;6.35;3.25;;;15.70;99.90;;;;;;5035459;28;20388;-51
2023/07/30 01:48:45;;;;;;;8.40;4.55;;;15.60;99.90;;;;;;5038485;28;20067;-51
2023/07/30 01:51:11;;;;;;;9.35;3.67;;;15.70;99.90;;;;;;5052487;28;20044;-52
2023/07/30 01:53:36;;;;;;;9.48;4.43;;;15.60;99.90;;;;;;5037607;28;20048;-52
2023/07/30 01:56:02;;;;;;;9.43;4.53;;;15.60;99.90;;;;;;5036551;28;20386;-50
2023/07/30 01:58:27;;;;;;;11.48;4.07;;;15.60;99.90;;;;;;5037149;28;20040;-53
2023/07/30 02:00:53;;;;;;;21.52;4.30;;;15.70;99.90;;;;;;5037695;28;20884;-50
2023/07/30 02:03:19;;;;;;;8.13;3.55;;;15.60;99.90;;;;;;5036759;28;20037;-52
2023/07/30 02:05:44;;;;;;;7.20;3.63;;;15.50;99.90;;;;;;5037800;28;20044;-51
2023/07/30 02:08:10;;;;;;;7.93;3.90;;;15.50;99.90;;;;;;5036131;28;20120;-52
2023/07/30 02:10:35;;;;;;;11.88;4.25;;;15.50;99.90;;;;;;5037782;28;20648;-50
2023/07/30 02:13:01;;;;;;;10.40;4.10;;;15.60;99.90;;;;;;5036515;28;20044;-50
2023/07/30 02:15:27;;;;;;;10.10;3.60;;;15.40;99.90;;;;;;5036429;28;20072;-52
2023/07/30 02:17:52;;;;;;;10.48;3.95;;;15.30;99.90;;;;;;5036478;28;20504;-51
2023/07/30 02:20:18;;;;;;;12.95;3.78;;;15.30;99.90;;;;;;5035694;28;20048;-53
2023/07/30 02:22:43;;;;;;;12.07;4.60;;;15.30;99.90;;;;;;5034540;28;20040;-52
2023/07/30 02:25:09;;;;;;;10.95;3.85;;;15.50;99.90;;;;;;5035944;28;20033;-51
2023/07/30 02:27:35;;;;;;;8.48;4.05;;;15.50;99.90;;;;;;5035476;28;21462;-54
2023/07/30 02:30:00;;;;;;;11.30;4.18;;;15.40;99.90;;;;;;5036308;28;20045;-52
2023/07/30 02:32:26;;;;;;;9.90;4.25;;;15.30;99.90;;;;;;5034909;28;20045;-52
2023/07/30 02:34:51;;;;;;;10.40;3.78;;;15.30;99.90;;;;;;5036724;28;20414;-52
2023/07/30 02:37:17;;;;;;;10.35;4.07;;;15.20;99.90;;;;;;5032984;28;20029;-52
2023/07/30 02:39:42;;;;;;;10.20;4.18;;;15.20;99.90;;;;;;5036705;28;20045;-50
2023/07/30 02:42:08;;;;;;;12.23;4.43;;;15.20;99.90;;;;;;5040629;28;20524;-50
2023/07/30 02:44:33;;;;;;;10.68;4.00;;;15.20;99.90;;;;;;5036731;28;20033;-51
2023/07/30 02:46:59;;;;;;;9.57;4.18;;;15.30;99.90;;;;;;5036366;28;20445;-52
2023/07/30 02:49:25;;;;;;;12.30;4.25;;;15.20;99.90;;;;;;5037241;28;20037;-51
2023/07/30 02:51:50;;;;;;;9.35;4.13;;;15.30;99.90;;;;;;5037192;28;20029;-52
2023/07/30 02:54:17;;;;;;;12.52;4.20;;;15.20;99.90;;;;;;5034981;28;20052;-52
2023/07/30 02:56:43;;;;;;;14.25;4.47;;;15.30;99.90;;;;;;5035713;28;20041;-51
2023/07/30 02:59:08;;;;;;;12.45;4.50;;;15.10;99.90;;;;;;5036356;28;20504;-51
2023/07/30 03:01:34;;;;;;;15.43;4.20;;;15.10;99.90;;;;;;5035183;28;20133;-51
2023/07/30 03:04:00;;;;;;;14.95;4.72;;;15.10;99.90;;;;;;5039032;28;20093;-52
2023/07/30 03:06:25;;;;;;;13.25;4.07;;;15.20;99.90;;;;;;5035051;28;20144;-51
2023/07/30 03:08:51;;;;;;;11.98;4.07;;;15.10;99.90;;;;;;5034928;28;20036;-53
2023/07/30 03:11:16;;;;;;;9.95;3.85;;;15.00;99.90;;;;;;5033864;28;20055;-52
2023/07/30 03:13:42;;;;;;;8.98;4.03;;;15.00;99.90;;;;;;5034975;28;20044;-50
2023/07/30 03:16:08;;;;;;;11.88;4.40;;;14.90;99.90;;;;;;5035679;28;20043;-53
2023/07/30 03:18:33;;;;;;;13.52;4.30;;;15.00;99.90;;;;;;5033680;28;20029;-52
2023/07/30 03:21:00;;;;;;;11.55;3.80;;;15.00;99.90;;;;;;5036196;28;20032;-51
2023/07/30 03:23:26;;;;;;;12.32;4.25;;;14.90;99.90;;;;;;5032324;28;20037;-52
2023/07/30 03:25:51;;;;;;;11.23;4.40;;;14.90;99.90;;;;;;5038683;28;20033;-50
2023/07/30 03:28:17;;;;;;;9.02;4.40;;;15.00;99.90;;;;;;5034398;28;20111;-52
2023/07/30 03:30:43;;;;;;;12.43;4.70;;;15.10;99.90;;;;;;5038412;28;20036;-51
2023/07/30 03:33:08;;;;;;;12.23;4.53;;;15.10;99.90;;;;;;5033761;28;20043;-51
2023/07/30 03:35:34;;;;;;;14.95;5.20;;;15.10;99.90;;;;;;5034831;28;20068;-51
2023/07/30 03:37:59;;;;;;;13.70;4.90;;;15.30;99.90;;;;;;5035519;28;20067;-51
2023/07/30 03:40:25;;;;;;;8.75;4.18;;;15.10;99.90;;;;;;5034756;28;20037;-50
2023/07/30 03:42:51;;;;;;;16.00;4.43;;;15.20;99.90;;;;;;5036018;28;20039;-55
2023/07/30 03:45:17;;;;;;;11.35;4.43;;;15.20;99.90;;;;;;5033996;28;20442;-53
2023/07/30 03:47:42;;;;;;;13.20;4.70;;;15.10;99.90;;;;;;5035806;28;20063;-52
2023/07/30 03:50:08;;;;;;;11.27;4.22;;;15.30;99.90;;;;;;5037440;28;20091;-52
2023/07/30 03:52:34;;;;;;;14.60;4.50;;;15.30;99.90;;;;;;5033192;28;20033;-52
2023/07/30 03:54:59;;;;;;;17.60;4.75;;;15.40;99.90;;;;;;5035668;28;20033;-53
2023/07/30 03:57:25;;;;;;;9.07;4.57;;;15.40;99.90;;;;;;5035463;28;20452;-51
2023/07/30 03:59:51;;;;;;;12.52;4.63;;;15.50;99.90;;;;;;5038307;28;20036;-52
2023/07/30 04:02:16;;;;;;;14.23;4.82;;;15.40;99.90;;;;;;5035551;28;20036;-50
2023/07/30 04:04:44;;;;;;;15.27;4.93;;;15.50;99.90;;;;;;5036384;28;20040;-50
2023/07/30 04:07:10;;;;;;;16.90;5.15;;;15.50;99.90;;;;;;5035104;28;20067;-52
2023/07/30 04:09:36;;;;;;;14.48;5.25;;;15.60;99.90;;;;;;5029127;28;20649;-52
2023/07/30 04:12:02;;;;;;;15.10;4.88;;;15.60;99.90;;;;;;5045886;28;20653;-49
2023/07/30 04:14:27;;;;;;;15.32;5.47;;;15.60;99.90;;;;;;5033504;28;20122;-50
2023/07/30 04:16:53;;;;;;;19.00;5.05;;;15.60;99.90;;;;;;5034958;28;20026;-51
2023/07/30 04:19:19;;;;;;;13.90;5.28;;;15.70;99.90;;;;;;5034641;28;20037;-52
2023/07/30 04:21:45;;;;;;;17.65;5.40;;;15.80;99.90;;;;;;5034497;28;20029;-53
2023/07/30 04:24:10;;;;;;;14.00;4.93;;;15.90;99.90;;;;;;5035413;28;20044;-52
2023/07/30 04:26:36;;;;;;;20.00;4.78;;;16.00;99.90;;;;;;5032904;28;20053;-51
2023/07/30 04:29:01;;;;;;;14.27;5.00;;;16.00;99.90;;;;;;5034280;28;20025;-50
2023/07/30 04:31:27;;;;;;;17.30;5.03;;;16.10;99.90;;;;;;5032714;28;20102;-51
2023/07/30 04:33:53;;;;;;;21.33;5.28;;;16.10;99.90;;;;;;5032085;28;20029;-51
2023/07/30 04:36:18;;;;;;;16.98;4.63;;;16.10;99.90;;;;;;5034592;28;20048;-52
2023/07/30 04:38:44;;;;;;;14.52;4.95;;;16.30;99.90;;;;;;5034556;28;20413;-52
2023/07/30 04:41:09;;;;;;;13.63;4.75;;;16.30;99.90;;;;;;5033255;28;20481;-50
2023/07/30 04:43:35;;;;;;;17.85;5.18;;;16.40;99.90;;;;;;5035287;28;20210;-52
2023/07/30 04:46:01;;;;;;;13.65;4.88;;;16.40;99.90;;;;;;5035780;28;20726;-52
2023/07/30 04:48:26;;;;;;;17.23;5.57;;;16.40;99.90;;;;;;5038863;28;20099;-50
2023/07/30 04:50:52;;;;;;;15.30;5.22;;;17.20;99.90;;;;;;5040133;28;20033;-50
2023/07/30 04:53:18;;;;;;;12.30;4.55;;;16.50;99.90;;;;;;5039002;28;20472;-53
2023/07/30 04:55:46;;;;;;;15.07;4.68;;;16.50;99.90;;;;;;5039566;28;20706;-51
2023/07/30 04:58:12;;;;;;;14.70;5.07;;;16.60;99.90;;;;;;5040640;28;20543;-53
2023/07/30 05:00:37;;;;;;;20.58;5.00;;;16.50;99.90;;;;;;5034600;28;20116;-52
2023/07/30 05:03:03;;;;;;;13.77;4.70;;;17.10;99.90;;;;;;5037630;28;20063;-52
2023/07/30 05:05:29;;;;;;;18.00;4.90;;;16.70;99.90;;;;;;5034516;28;20083;-52
2023/07/30 05:07:54;;;;;;;15.18;4.97;;;16.80;99.90;;;;;;5038560;28;20040;-51
2023/07/30 05:10:20;;;;;;;23.25;5.22;;;16.80;99.90;;;;;;5035831;28;20033;-51
2023/07/30 05:12:47;;;;;;;15.00;4.60;;;;;;;;;;5037365;28;20247;-52
2023/07/30 05:15:12;;;;;;;18.92;5.15;;;17.00;99.90;;;;;;5037061;28;20551;-52
2023/07/30 05:17:38;;;;;;;15.63;4.50;;;17.00;99.90;;;;;;5035952;28;20113;-52
2023/07/30 05:20:04;;;;;;;17.90;4.47;;;17.20;99.90;;;;;;5037474;28;20037;-53
2023/07/30 05:22:30;;;;;;;19.80;5.22;;;17.10;99.90;;;;;;5036456;28;21220;-52
2023/07/30 05:24:56;;;;;;;13.02;4.43;;;17.10;99.90;;;;;;5035695;28;20037;-50
2023/07/30 05:27:22;;;;;;;14.98;4.45;;;17.00;99.90;;;;;;5033553;28;20044;-51
2023/07/30 05:29:48;;;;;;;17.67;4.85;;;17.60;99.90;;;;;;5039030;28;20039;-51
2023/07/30 05:32:14;;;;;;;17.52;4.75;;;17.20;99.90;;;;;;5036093;28;20035;-52
2023/07/30 05:34:39;;;;;;;17.02;4.85;;;17.10;99.90;;;;;;5038115;28;20408;-54
2023/07/30 05:37:05;;;;;;;18.65;4.10;;;17.20;99.90;;;;;;5037839;28;20029;-52
2023/07/30 05:39:31;;;;;;;16.88;4.93;;;17.20;99.90;;;;;;5037486;28;20048;-52
2023/07/30 05:41:56;;;;;;;16.55;4.50;;;17.20;99.90;;;;;;5035774;28;20126;-51
2023/07/30 05:44:22;;;;;;;12.95;4.00;;;17.00;99.90;;;;;;5037019;28;20186;-50
2023/07/30 05:46:47;;;;;;;17.75;4.78;;;17.10;99.90;;;;;;5035300;28;20087;-51
2023/07/30 05:49:14;;;;;;;17.50;4.57;;;17.10;99.90;;;;;;5029725;28;20033;-51
2023/07/30 05:51:40;;;;;;;11.50;3.90;;;17.20;99.90;;;;;;5036189;28;20041;-48
2023/07/30 05:54:05;;;;;;;16.45;4.20;;;17.10;99.90;;;;;;5037518;28;20040;-51
2023/07/30 05:56:31;;;;;;;13.73;3.58;;;17.20;99.90;;;;;;5035334;28;20056;-53
2023/07/30 05:58:56;;;;;;;12.88;3.92;;;17.30;99.90;;;;;;5036683;28;20042;-51
2023/07/30 06:01:22;;;;;;;16.15;3.92;;;17.30;99.90;;;;;;5036337;28;20464;-53
2023/07/30 06:03:48;;;;;;;15.45;4.05;;;17.30;99.90;;;;;;5038109;28;20044;-52
2023/07/30 06:06:14;;;;;;;11.80;3.63;;;17.30;99.90;;;;;;5036172;28;20098;-51
2023/07/30 06:08:40;;;;;;;13.55;3.42;;;17.30;99.90;;;;;;5035044;28;20041;-50
2023/07/30 06:11:05;;;;;;;17.60;3.90;;;17.40;99.90;;;;;;5036580;28;20037;-50
2023/07/30 06:13:31;;;;;;;18.63;4.22;;;17.40;99.90;;;;;;5036697;28;20033;-50
2023/07/30 06:15:57;;;;;;;12.00;2.90;;;17.50;99.90;;;;;;5034003;28;20442;-51
2023/07/30 06:18:22;;;;;;;12.70;3.28;;;17.40;99.90;;;;;;5036966;28;20045;-51
2023/07/30 06:20:48;;;;;;;11.13;2.83;;;17.40;99.90;;;;;;5037565;28;20037;-49
2023/07/30 06:23:13;;;;;;;11.07;2.50;;;17.50;99.90;;;;;;5035784;28;20037;-50
2023/07/30 06:25:39;;;;;;;10.68;2.95;;;17.40;99.90;;;;;;5031440;28;20128;-52
2023/07/30 06:28:05;;;;;;;10.82;2.78;;;17.50;99.90;;;;;;5036202;28;20443;-51
2023/07/30 06:30:32;;;;;;;12.43;2.67;;;17.60;99.90;;;;;;5036221;28;20229;-54
2023/07/30 06:32:58;;;;;;;12.57;2.50;;;17.50;99.90;;;;;;5038184;28;20090;-51
2023/07/30 06:35:24;;;;;;;10.23;2.78;;;17.70;99.90;;;;;;5035969;28;20436;-52
2023/07/30 06:37:50;;;;;;;10.88;2.22;;;17.80;99.90;;;;;;5035919;28;20041;-54
2023/07/30 06:40:16;;;;;;;13.38;2.47;;;18.20;99.90;;;;;;5036035;28;20033;-51
2023/07/30 06:42:42;;;;;;;10.70;2.70;;;17.70;99.90;;;;;;5037023;28;21176;-51
2023/07/30 06:45:08;;;;;;;11.70;2.65;;;17.90;99.90;;;;;;5037533;28;20322;-51
2023/07/30 06:47:34;;;;;;;13.38;3.17;;;17.80;99.90;;;;;;5034637;28;20056;-51
2023/07/30 06:49:59;;;;;;;14.13;2.90;;;17.80;99.90;;;;;;5036406;28;20037;-52
2023/07/30 06:52:25;;;;;;;11.10;2.70;;;17.90;99.90;;;;;;5025962;28;20029;-51
2023/07/30 06:54:51;;;;;;;13.80;2.67;;;17.90;99.90;;;;;;5036422;28;20540;-51
2023/07/30 06:57:16;;;;;;;11.75;3.00;;;18.00;99.90;;;;;;5033777;28;20159;-52
2023/07/30 06:59:43;;;;;;;18.83;3.55;;;;;;;;;;5037970;28;20497;-54
2023/07/30 07:02:08;;;;;;;15.18;2.90;;;17.80;99.90;;;;;;5034675;28;20634;-51
2023/07/30 07:04:34;;;;;;;15.48;3.13;;;18.00;99.90;;;;;;5034789;28;20290;-51
2023/07/30 07:07:03;;;;;;;15.07;3.10;;;18.10;99.90;;;;;;5035224;28;20075;-50
2023/07/30 07:09:28;;;;;;;17.13;3.78;;;18.10;99.90;;;;;;5034859;28;20037;-52
2023/07/30 07:11:54;;;;;;;13.90;3.35;;;18.20;99.90;;;;;;5034975;28;20033;-53
2023/07/30 07:14:19;;;;;;;13.02;3.03;;;18.30;99.90;;;;;;5034406;28;20067;-51
2023/07/30 07:16:45;;;;;;;16.67;3.42;;;18.20;99.90;;;;;;5037373;28;20528;-52
2023/07/30 07:19:11;;;;;;;14.30;3.13;;;18.20;99.90;;;;;;5032941;28;20033;-52
2023/07/30 07:21:37;;;;;;;17.35;3.75;;;18.30;99.90;;;;;;5033466;28;20122;-52
2023/07/30 07:24:03;;;;;;;15.82;3.83;;;18.30;99.90;;;;;;5037882;28;20779;-52
2023/07/30 07:26:28;;;;;;;12.77;3.20;;;18.30;99.90;;;;;;5036270;28;20033;-50
2023/07/30 07:28:55;;;;;;;14.65;3.53;;;18.30;99.90;;;;;;5036846;28;20034;-53
2023/07/30 07:31:21;;;;;;;15.82;3.67;;;18.50;99.90;;;;;;5032577;28;22059;-52
2023/07/30 07:33:47;;;;;;;21.40;3.92;;;18.50;99.90;;;;;;5037268;28;20029;-52
2023/07/30 07:36:14;;;;;;;16.00;3.72;;;18.40;99.90;;;;;;5033119;28;20124;-51
2023/07/30 07:38:39;;;;;;;15.90;3.85;;;18.50;99.90;;;;;;5035432;28;20538;-50
2023/07/30 07:41:05;;;;;;;14.75;3.40;;;18.50;99.90;;;;;;5035370;28;20120;-53
2023/07/30 07:43:31;;;;;;;14.50;3.70;;;18.50;99.90;;;;;;5035027;28;20055;-52
2023/07/30 07:45:57;;;;;;;18.02;4.18;;;18.40;99.90;;;;;;5036347;28;20041;-53
2023/07/30 07:48:22;;;;;;;15.35;3.75;;;18.40;99.90;;;;;;5033490;28;20037;-52
2023/07/30 07:50:49;;;;;;;19.17;4.30;;;18.30;99.90;;;;;;5034328;28;20041;-52
2023/07/30 07:53:14;;;;;;;14.52;3.80;;;18.30;99.90;;;;;;5034590;28;20037;-53
2023/07/30 07:55:40;;;;;;;19.48;4.18;;;18.40;99.90;;;;;;5024858;28;20401;-50
2023/07/30 07:58:05;;;;;;;21.48;4.03;;;18.50;99.90;;;;;;5034022;28;20451;-52
2023/07/30 08:00:31;;;;;;;12.50;3.65;;;18.60;99.90;;;;;;5030272;28;20073;-51
2023/07/30 08:02:57;;;;;;;17.35;3.95;;;18.60;99.90;;;;;;5034712;28;20583;-51
2023/07/30 08:05:24;;;;;;;21.77;3.88;;;18.80;99.90;;;;;;5033816;28;20033;-51
2023/07/30 08:07:50;;;;;;;21.83;4.13;;;18.60;99.90;;;;;;5034460;28;20037;-52
2023/07/30 08:10:16;;;;;;;15.10;3.90;;;18.60;99.90;;;;;;5034084;28;20411;-52
2023/07/30 08:12:42;;;;;;;19.65;4.03;;;18.60;99.90;;;;;;5033752;28;20033;-52
2023/07/30 08:15:08;;;;;;;17.70;4.18;;;18.50;99.90;;;;;;5035935;28;20039;-54
2023/07/30 08:17:33;;;;;;;19.05;4.07;;;18.50;99.90;;;;;;5033679;28;20041;-53
2023/07/30 08:19:59;;;;;;;15.52;4.03;;;18.50;99.90;;;;;;5035545;28;20025;-52
2023/07/30 08:22:24;;;;;;;19.00;3.80;;;18.70;99.90;;;;;;5039387;28;20119;-51
2023/07/30 08:24:50;;;;;;;23.98;4.50;;;18.70;99.90;;;;;;5040561;28;20067;-52
2023/07/30 08:27:16;;;;;;;15.27;3.45;;;18.80;99.90;;;;;;5037894;28;20033;-52
2023/07/30 08:29:41;;;;;;;14.10;3.70;;;18.80;99.90;;;;;;5037730;28;20527;-53
2023/07/30 08:32:07;;;;;;;19.98;4.93;;;18.90;99.90;;;;;;5036777;28;20724;-52
2023/07/30 08:34:33;;;;;;;27.20;4.63;;;18.90;99.90;;;;;;5039923;28;20047;-56
2023/07/30 08:36:58;;;;;;;16.20;4.32;;;19.00;99.90;;;;;;5039877;28;20087;-53
2023/07/30 08:39:24;;;;;;;21.83;4.78;;;19.00;99.90;;;;;;5038187;28;20495;-52
2023/07/30 08:41:49;;;;;;;23.80;10.48;;;19.00;99.90;;;;;;5038904;28;20044;-51
2023/07/30 08:44:16;;;;;;;14.00;3.63;;;19.00;99.90;;;;;;5038559;28;20437;-51
2023/07/30 08:46:42;;;;;;;15.00;3.63;;;19.20;99.90;;;;;;5037865;28;20055;-51
2023/07/30 08:49:07;;;;;;;13.65;3.83;;;19.30;99.90;;;;;;5039951;28;20477;-50
2023/07/30 08:51:36;;;;;;;14.57;3.88;;;19.40;99.90;;;;;;5037773;28;20125;-51
2023/07/30 08:54:03;;;;;;;21.75;4.28;;;19.50;99.90;;;;;;5038259;28;20500;-52
2023/07/30 08:56:30;;;;;;;16.83;3.20;;;19.40;99.90;;;;;;5039611;28;20511;-57
2023/07/30 08:58:59;;;;;;;15.95;4.35;;;19.50;99.90;;;;;;5037400;28;20033;-51
2023/07/30 09:01:30;;;;;;;19.65;3.83;;;19.40;99.90;;;;;;5037800;28;20041;-51
2023/07/30 09:04:00;;;;;;;18.02;3.83;;;19.40;99.90;;;;;;5039195;28;20037;-52
2023/07/30 09:06:25;;;;;;;19.33;3.95;;;19.50;99.90;;;;;;5037373;28;20421;-52
2023/07/30 09:08:51;;;;;;;12.85;3.70;;;19.40;99.90;;;;;;5038927;28;20052;-52
2023/07/30 09:11:17;;;;;;;20.20;4.60;;;19.30;99.90;;;;;;5036615;28;21003;-51
2023/07/30 09:13:42;;;;;;;16.38;3.65;;;19.40;99.90;;;;;;5039692;28;20528;-51
2023/07/30 09:16:13;;;;;;;16.98;3.95;;;19.40;99.90;;;;;;5035212;28;20056;-52
2023/07/30 09:18:46;;;;;;;19.58;3.42;;;19.60;99.90;;;;;;5038665;28;20052;-49
2023/07/30 09:21:13;;;;;;;15.80;3.70;;;19.60;99.90;;;;;;5039793;28;20090;-52
2023/07/30 09:23:46;;;;;;;13.98;3.40;;;19.80;99.90;;;;;;5039118;28;20108;-52
2023/07/30 09:26:13;;;;;;;17.38;3.75;;;20.00;99.90;;;;;;5038334;28;20554;-52
2023/07/30 09:28:39;;;;;;;16.80;3.28;;;20.10;99.90;;;;;;5036952;28;20084;-51
2023/07/30 09:31:07;;;;;;;16.73;3.70;;;20.30;99.90;;;;;;5037634;28;20123;-52
2023/07/30 09:33:40;;;;;;;18.92;3.42;;;20.40;99.90;;;;;;5037495;28;20037;-52
2023/07/30 09:36:08;;;;;;;15.25;3.20;;;20.70;99.90;;;;;;5036519;28;20537;-53
2023/07/30 09:38:42;;;;;;;14.60;2.80;;;20.90;99.90;;;;;;5037035;28;20499;-52
2023/07/30 09:41:09;;;;;;;17.50;3.40;;;20.90;99.90;;;;;;5037677;28;21677;-51
2023/07/30 09:43:35;;;;;;;14.80;3.53;;;20.80;99.90;;;;;;5035712;28;20164;-52
2023/07/30 09:46:05;;;;;;;17.52;3.03;;;20.80;99.90;;;;;;5035755;28;20036;-51
2023/07/30 09:48:32;;;;;;;14.27;3.00;;;20.80;99.90;;;;;;5035813;28;20778;-52
2023/07/30 09:51:04;;;;;;;14.00;3.05;;;20.80;99.90;;;;;;5024938;28;20567;-50
2023/07/30 09:53:36;;;;;;;17.35;2.90;;;20.70;99.90;;;;;;5035712;28;20041;-53
2023/07/30 09:56:08;;;;;;;17.70;3.83;;;20.80;99.90;;;;;;5039503;28;20765;-51
2023/07/30 09:58:36;;;;;;;16.40;3.42;;;20.80;99.90;;;;;;5037741;28;20044;-56
2023/07/30 10:01:05;;;;;;;15.68;3.03;;;20.80;99.90;;;;;;5037339;28;20564;-51
2023/07/30 10:03:34;;;;;;;14.68;2.97;;;20.70;99.90;;;;;;5037070;28;20504;-52
2023/07/30 10:06:03;;;;;;;11.73;2.75;;;20.60;99.90;;;;;;5031646;28;20040;-53
2023/07/30 10:08:35;;;;;;;11.43;2.42;;;20.70;99.90;;;;;;5037693;28;21058;-51
2023/07/30 10:11:04;;;;;;;12.55;2.28;;;20.70;99.90;;;;;;5037394;28;20401;-54
2023/07/30 10:13:31;;;;;;;13.88;2.78;;;20.60;99.90;;;;;;5036320;28;20099;-49
2023/07/30 10:15:58;;;;;;;8.80;2.60;;;20.50;99.90;;;;;;5034458;28;20493;-52
2023/07/30 10:18:33;;;;;;;14.05;3.20;;;20.40;99.90;;;;;;5028555;28;20052;-52
2023/07/30 10:20:59;;;;;;;12.45;2.83;;;20.40;99.90;;;;;;5034161;28;20117;-50
2023/07/30 10:23:28;;;;;;;9.32;2.20;;;20.50;99.90;;;;;;5033693;28;20040;-51
2023/07/30 10:25:55;;;;;;;9.70;2.40;;;20.50;99.90;;;;;;5035533;28;20041;-49
2023/07/30 10:28:30;;;;;;;13.55;2.63;;;20.60;99.90;;;;;;5034802;28;20067;-53
2023/07/30 10:30:57;;;;;;;16.38;2.55;;;20.70;99.90;;;;;;5037142;28;20037;-50
2023/07/30 10:33:23;;;;;;;13.65;2.42;;;20.80;99.90;;;;;;5032966;28;20112;-53
2023/07/30 10:35:55;;;;;;;13.73;2.90;;;20.90;99.90;;;;;;5037604;28;20049;-50
2023/07/30 10:38:30;;;;;;;14.60;2.47;;;21.00;99.90;;;;;;5037742;28;20611;-52
2023/07/30 10:41:04;;;;;;;14.75;2.25;;;21.20;99.90;;;;;;5036756;28;20567;-52
2023/07/30 10:43:33;;;;;;;11.02;2.40;;;21.20;99.90;;;;;;5033182;28;20056;-52
2023/07/30 10:45:59;;;;;;;14.63;2.80;;;21.00;99.90;;;;;;5035238;28;20547;-51
2023/07/30 10:48:33;;;;;;;17.15;2.65;;;21.00;99.90;;;;;;5035133;28;20135;-53
2023/07/30 10:51:00;;;;;;;11.52;2.47;;;21.20;99.90;;;;;;5039002;28;20043;-53
2023/07/30 10:53:26;;;;;;;18.05;2.83;;;21.40;99.90;;;;;;5038155;28;20511;-53
2023/07/30 10:55:53;;;;;;;11.55;2.28;;;21.40;99.90;;;;;;5038675;28;20041;-53
2023/07/30 10:58:18;;;;;;;14.38;2.50;;;21.50;99.90;;;;;;5036071;28;20033;-51
2023/07/30 11:00:44;;;;;;;10.75;2.30;;;21.60;99.90;;;;;;5037282;28;20684;-52
2023/07/30 11:03:10;;;;;;;11.05;2.25;;;21.70;99.90;;;;;;5038092;28;20068;-52
2023/07/30 11:05:38;;;;;;;10.45;2.03;;;21.60;99.90;;;;;;5035324;28;20111;-52
2023/07/30 11:08:04;;;;;;;9.90;2.63;;;21.50;99.90;;;;;;5036342;28;20048;-52
2023/07/30 11:10:30;;;;;;;16.30;3.10;;;21.60;99.90;;;;;;5035791;28;20033;-52
2023/07/30 11:12:57;;;;;;;11.02;2.25;;;21.70;99.90;;;;;;5037025;28;21037;-52
2023/07/30 11:15:24;;;;;;;13.85;2.35;;;21.90;99.90;;;;;;5035549;28;20770;-50
2023/07/30 11:17:52;;;;;;;8.00;1.98;;;22.10;99.90;;;;;;5037386;28;20037;-53
2023/07/30 11:20:26;;;;;;;11.57;2.58;;;23.50;99.90;;;;;;5035812;28;20497;-51
2023/07/30 11:22:52;;;;;;;13.25;2.58;;;22.30;99.90;;;;;;5035524;28;20030;-53
2023/07/30 11:25:18;;;;;;;13.13;2.80;;;22.10;99.90;;;;;;5034265;28;20571;-54
2023/07/30 11:27:48;;;;;;;14.10;2.45;;;22.10;99.90;;;;;;5038502;28;20060;-52
2023/07/30 11:30:14;;;;;;;15.05;2.47;;;22.30;99.90;;;;;;5036026;28;20059;-52
2023/07/30 11:32:41;;;;;;;11.50;2.55;;;22.30;99.90;;;;;;5037460;28;20664;-52
2023/07/30 11:35:08;;;;;;;11.25;2.60;;;22.10;99.90;;;;;;5034764;28;20492;-54
2023/07/30 11:37:34;;;;;;;9.73;2.30;;;22.20;99.90;;;;;;5035534;28;20063;-54
2023/07/30 11:40:02;;;;;;;10.40;2.35;;;22.20;99.90;;;;;;5038136;28;20076;-51
2023/07/30 11:42:30;;;;;;;8.73;2.10;;;22.10;99.90;;;;;;5034515;28;20039;-52
2023/07/30 11:44:55;;;;;;;14.80;2.75;;;22.00;99.90;;;;;;5035951;28;20064;-58
2023/07/30 11:47:22;;;;;;;8.23;2.03;;;22.00;99.90;;;;;;5036003;28;20500;-52
2023/07/30 11:49:58;;;;;;;8.63;2.00;;;22.00;99.90;;;;;;5036033;28;20547;-52
2023/07/30 11:52:23;;;;;;;13.07;1.83;;;22.10;99.90;;;;;;5035371;28;20130;-52
2023/07/30 11:55:01;;;;;;;12.93;2.05;;;22.00;99.90;;;;;;5035951;28;20583;-52
2023/07/30 11:57:36;;;;;;;6.78;1.38;;;22.10;99.90;;;;;;5033764;28;20037;-53
2023/07/30 12:00:02;;;;;;;11.73;2.15;;;22.10;99.90;;;;;;5035956;28;20029;-49
2023/07/30 12:02:29;;;;;;;10.23;2.10;;;21.90;99.90;;;;;;5035409;28;20033;-52
2023/07/30 12:04:55;;;;;;;6.38;1.63;;;22.00;99.90;;;;;;5036233;28;20526;-52
2023/07/30 12:07:24;;;;;;;10.20;1.83;;;22.20;99.90;;;;;;5040123;28;20029;-52
2023/07/30 12:09:50;;;;;;;7.05;1.52;;;22.10;99.90;;;;;;5035709;28;20041;-51
2023/07/30 12:12:15;;;;;;;8.82;1.80;;;22.00;99.90;;;;;;5034742;28;20139;-53
2023/07/30 12:14:53;;;;;;;5.10;1.08;;;22.00;99.90;;;;;;5034205;28;20033;-53
2023/07/30 12:17:19;;;;;;;5.22;1.33;;;21.70;99.90;;;;;;5033661;28;20037;-52
2023/07/30 12:19:45;;;;;;;8.77;1.48;;;22.10;99.90;;;;;;5036084;28;20037;-52
2023/07/30 12:22:10;;;;;;;9.20;1.40;;;21.70;99.90;;;;;;5033693;28;20060;-52
2023/07/30 12:24:36;;;;;;;6.50;1.35;;;21.60;99.90;;;;;;5035382;28;20044;-52
2023/07/30 12:27:02;;;;;;;8.18;1.42;;;21.80;99.90;;;;;;5036065;28;20123;-52
2023/07/30 12:29:28;;;;;;;6.82;1.45;;;21.80;99.90;;;;;;5035659;28;20040;-51
2023/07/30 12:31:55;;;;;;;6.20;1.42;;;22.10;99.90;;;;;;5035165;28;20055;-52
2023/07/30 12:34:23;;;;;;;9.80;1.80;;;22.00;99.90;;;;;;5033034;28;20281;-52
2023/07/30 12:36:48;;;;;;;5.32;1.40;;;22.00;99.90;;;;;;5034557;28;20040;-52